createdAt,value
2023-08-17T00:02:17.675Z,88.12
2023-08-17T00:04:44.666Z,88.08
2023-08-17T00:07:11.898Z,87.72
2023-08-17T00:09:39.597Z,87.94
2023-08-17T00:12:06.863Z,88.21
2023-08-17T00:14:33.778Z,88.18
2023-08-17T00:17:00.767Z,88.13
2023-08-17T00:19:27.663Z,88.17
2023-08-17T00:21:56.332Z,88.51
2023-08-17T00:24:23.193Z,88.96
2023-08-17T00:26:50.109Z,89.29
2023-08-17T00:29:18.211Z,89.49
2023-08-17T00:31:45.317Z,89.90
2023-08-17T00:34:12.380Z,90.56
2023-08-17T00:36:39.243Z,90.38
2023-08-17T00:39:06.277Z,90.82
2023-08-17T00:41:33.201Z,91.04
2023-08-17T00:44:01.801Z,91.36
2023-08-17T00:46:30.751Z,91.31
2023-08-17T00:48:59.367Z,91.41
2023-08-17T00:51:27.501Z,91.59
2023-08-17T00:53:59.086Z,91.59
2023-08-17T00:56:27.629Z,91.79
2023-08-17T00:58:55.261Z,91.99
2023-08-17T01:01:23.757Z,91.76
2023-08-17T01:03:50.901Z,92.27
2023-08-17T01:06:17.787Z,92.12
2023-08-17T01:08:45.881Z,92.46
2023-08-17T01:11:35.793Z,92.38
2023-08-17T01:14:34.284Z,92.78
2023-08-17T01:17:49.518Z,92.76
2023-08-17T01:20:18.127Z,92.72
2023-08-17T01:22:49.881Z,92.75
2023-08-17T01:25:17.010Z,92.95
2023-08-17T01:27:46.711Z,92.83
2023-08-17T01:30:18.782Z,92.99
2023-08-17T01:33:08.401Z,93.02
2023-08-17T01:35:51.243Z,92.95
2023-08-17T01:38:20.156Z,93.53
2023-08-17T01:40:48.879Z,93.33
2023-08-17T01:43:18.040Z,92.97
2023-08-17T01:45:45.255Z,93.01
2023-08-17T01:48:12.211Z,93.08
2023-08-17T01:50:39.105Z,92.74
2023-08-17T01:53:06.013Z,93.05
2023-08-17T01:55:32.898Z,92.99
2023-08-17T01:57:59.851Z,93.12
2023-08-17T02:00:26.870Z,93.08
2023-08-17T02:02:53.784Z,93.20
2023-08-17T02:05:20.708Z,93.18
2023-08-17T02:07:47.605Z,93.45
2023-08-17T02:10:14.510Z,93.57
2023-08-17T02:12:41.363Z,93.54
2023-08-17T02:15:09.189Z,93.55
2023-08-17T02:17:36.186Z,93.31
2023-08-17T02:20:04.911Z,93.15
2023-08-17T02:22:31.842Z,93.42
2023-08-17T02:24:58.735Z,93.31
2023-08-17T02:27:26.124Z,93.52
2023-08-17T02:29:53.196Z,93.42
2023-08-17T02:32:20.104Z,93.81
2023-08-17T02:34:47.033Z,93.65
2023-08-17T02:37:13.895Z,93.54
2023-08-17T02:39:40.902Z,93.46
2023-08-17T02:42:07.807Z,93.74
2023-08-17T02:44:34.786Z,93.75
2023-08-17T02:47:01.739Z,93.95
2023-08-17T02:49:28.602Z,93.97
2023-08-17T02:51:55.487Z,94.18
2023-08-17T02:54:22.415Z,94.57
2023-08-17T02:56:49.373Z,94.46
2023-08-17T02:59:16.225Z,94.27
2023-08-17T03:01:43.221Z,94.46
2023-08-17T03:04:10.178Z,94.08
2023-08-17T03:06:37.047Z,94.12
2023-08-17T03:09:04.415Z,93.65
2023-08-17T03:11:31.307Z,93.22
2023-08-17T03:14:04.044Z,93.34
2023-08-17T03:16:31.456Z,93.33
2023-08-17T03:18:59.301Z,93.37
2023-08-17T03:21:26.786Z,93.37
2023-08-17T03:23:53.921Z,93.63
2023-08-17T03:26:20.897Z,93.49
2023-08-17T03:28:47.738Z,93.64
2023-08-17T03:31:14.682Z,93.60
2023-08-17T03:33:41.829Z,93.18
2023-08-17T03:36:08.808Z,93.34
2023-08-17T03:38:35.711Z,92.91
2023-08-17T03:41:02.758Z,93.09
2023-08-17T03:43:29.613Z,93.63
2023-08-17T03:45:56.451Z,93.82
2023-08-17T03:48:23.893Z,94.05
2023-08-17T03:50:55.616Z,94.05
2023-08-17T03:53:22.653Z,93.89
2023-08-17T03:55:52.749Z,93.42
2023-08-17T03:58:19.857Z,93.48
2023-08-17T04:00:54.315Z,93.85
2023-08-17T04:03:21.500Z,93.38
2023-08-17T04:05:48.440Z,93.72
2023-08-17T04:08:15.311Z,93.53
2023-08-17T04:10:42.188Z,93.62
2023-08-17T04:13:09.076Z,93.93
2023-08-17T04:15:36.044Z,93.75
2023-08-17T04:18:02.943Z,93.77
2023-08-17T04:20:29.837Z,94.03
2023-08-17T04:22:56.719Z,93.22
2023-08-17T04:25:23.591Z,93.67
2023-08-17T04:27:50.465Z,93.38
2023-08-17T04:30:17.381Z,94.36
2023-08-17T04:32:44.575Z,93.89
2023-08-17T04:35:11.914Z,94.63
2023-08-17T04:37:38.855Z,95.32
2023-08-17T04:40:06.972Z,95.28
2023-08-17T04:42:33.837Z,95.33
2023-08-17T04:45:00.671Z,95.11
2023-08-17T04:47:27.923Z,95.85
2023-08-17T04:49:55.079Z,96.40
2023-08-17T04:52:21.946Z,97.09
2023-08-17T04:54:48.877Z,97.23
2023-08-17T04:57:15.781Z,96.94
2023-08-17T04:59:42.656Z,96.77
2023-08-17T05:02:09.540Z,96.93
2023-08-17T05:04:37.264Z,96.42
2023-08-17T05:07:04.378Z,95.91
2023-08-17T05:09:31.681Z,96.04
2023-08-17T05:11:58.719Z,95.15
2023-08-17T05:14:25.608Z,95.19
2023-08-17T05:16:52.497Z,94.86
2023-08-17T05:19:19.333Z,94.42
2023-08-17T05:21:46.279Z,94.60
2023-08-17T05:24:13.204Z,94.47
2023-08-17T05:26:40.124Z,94.44
2023-08-17T05:29:07.023Z,94.04
2023-08-17T05:31:33.930Z,93.64
2023-08-17T05:34:00.826Z,93.06
2023-08-17T05:36:27.655Z,94.13
2023-08-17T05:38:54.468Z,94.40
2023-08-17T05:41:21.443Z,93.87
2023-08-17T05:43:49.770Z,94.05
2023-08-17T05:46:16.631Z,94.27
2023-08-17T05:48:44.002Z,94.27
2023-08-17T05:51:10.910Z,94.95
2023-08-17T05:53:37.764Z,93.97
2023-08-17T05:56:04.740Z,94.57
2023-08-17T05:58:31.648Z,93.64
2023-08-17T06:01:09.585Z,93.62
2023-08-17T06:03:38.178Z,93.27
2023-08-17T06:06:06.686Z,92.55
2023-08-17T06:08:33.989Z,92.74
2023-08-17T06:11:01.018Z,92.51
2023-08-17T06:13:27.905Z,92.80
2023-08-17T06:15:57.781Z,92.18
2023-08-17T06:18:25.711Z,90.99
2023-08-17T06:20:54.698Z,90.85
2023-08-17T06:23:22.032Z,90.87
2023-08-17T06:25:48.957Z,90.53
2023-08-17T06:28:16.012Z,89.96
2023-08-17T06:30:42.967Z,90.72
2023-08-17T06:33:09.964Z,90.52
2023-08-17T06:35:37.081Z,90.99
2023-08-17T06:38:04.150Z,91.50
2023-08-17T06:40:31.051Z,90.83
2023-08-17T06:42:57.883Z,89.85
2023-08-17T06:45:24.744Z,89.96
2023-08-17T06:47:51.689Z,89.84
2023-08-17T06:50:18.651Z,89.59
2023-08-17T06:52:45.519Z,88.46
2023-08-17T06:55:12.392Z,87.12
2023-08-17T06:57:39.349Z,86.65
2023-08-17T07:00:07.096Z,87.12
2023-08-17T07:02:50.664Z,87.06
2023-08-17T07:05:19.620Z,87.28
2023-08-17T07:07:46.519Z,86.92
2023-08-17T07:10:13.471Z,86.48
2023-08-17T07:12:40.773Z,86.59
2023-08-17T07:15:13.858Z,86.09
2023-08-17T07:17:40.931Z,86.07
2023-08-17T07:20:16.475Z,85.95
2023-08-17T07:22:44.703Z,86.61
2023-08-17T07:25:11.605Z,87.02
2023-08-17T07:27:38.567Z,87.69
2023-08-17T07:30:06.132Z,87.29
2023-08-17T07:32:33.502Z,88.04
2023-08-17T07:35:00.416Z,87.42
2023-08-17T07:37:34.257Z,86.29
2023-08-17T07:40:01.401Z,86.99
2023-08-17T07:42:28.542Z,86.28
2023-08-17T07:44:55.619Z,85.79
2023-08-17T07:47:22.563Z,85.76
2023-08-17T07:49:50.040Z,84.80
2023-08-17T07:52:17.322Z,84.71
2023-08-17T07:54:44.677Z,84.14
2023-08-17T07:57:11.738Z,83.79
2023-08-17T07:59:38.664Z,83.90
2023-08-17T08:02:05.615Z,83.36
2023-08-17T08:04:32.605Z,83.33
2023-08-17T08:06:59.641Z,83.60
2023-08-17T08:09:26.584Z,84.17
2023-08-17T08:11:53.454Z,83.61
2023-08-17T08:14:20.349Z,83.25
2023-08-17T08:16:48.303Z,82.36
2023-08-17T08:19:15.263Z,82.62
2023-08-17T08:21:42.092Z,83.18
2023-08-17T08:24:17.711Z,83.05
2023-08-17T08:26:45.280Z,82.93
2023-08-17T08:29:12.237Z,81.48
2023-08-17T08:31:39.562Z,81.54
2023-08-17T08:34:06.461Z,80.81
2023-08-17T08:36:33.425Z,80.90
2023-08-17T08:39:00.326Z,80.46
2023-08-17T08:41:28.887Z,80.44
2023-08-17T08:43:56.412Z,79.32
2023-08-17T08:46:27.999Z,79.43
2023-08-17T08:48:56.175Z,78.35
2023-08-17T08:51:31.421Z,76.70
2023-08-17T08:54:14.634Z,75.64
2023-08-17T08:56:47.832Z,75.23
2023-08-17T08:59:16.089Z,74.93
2023-08-17T09:01:43.566Z,75.07
2023-08-17T09:04:10.813Z,75.78
2023-08-17T09:06:39.864Z,75.56
2023-08-17T09:09:07.466Z,74.93
2023-08-17T09:11:34.383Z,75.71
2023-08-17T09:14:01.243Z,75.76
2023-08-17T09:16:29.295Z,74.49
2023-08-17T09:18:56.290Z,74.38
2023-08-17T09:21:25.389Z,74.33
2023-08-17T09:23:58.913Z,73.66
2023-08-17T09:26:26.518Z,74.04
2023-08-17T09:28:55.330Z,74.24
2023-08-17T09:31:22.776Z,73.95
2023-08-17T09:33:53.289Z,73.74
2023-08-17T09:36:24.628Z,73.18
2023-08-17T09:38:52.536Z,73.03
2023-08-17T09:41:20.405Z,71.93
2023-08-17T09:43:50.480Z,72.07
2023-08-17T09:46:17.496Z,72.21
2023-08-17T09:48:48.029Z,71.86
2023-08-17T09:51:18.698Z,71.73
2023-08-17T09:53:45.584Z,71.33
2023-08-17T09:58:43.570Z,70.57
2023-08-17T10:01:11.191Z,70.59
2023-08-17T10:03:40.472Z,69.55
2023-08-17T10:06:11.175Z,69.19
2023-08-17T10:08:47.870Z,68.26
2023-08-17T10:11:20.869Z,65.96
2023-08-17T10:13:53.571Z,63.56
2023-08-17T10:16:31.656Z,61.49
2023-08-17T10:19:31.180Z,61.79
2023-08-17T10:22:22.473Z,60.76
2023-08-17T10:24:50.460Z,60.48
2023-08-17T10:27:18.727Z,61.10
2023-08-17T10:29:46.466Z,62.88
2023-08-17T10:32:16.773Z,64.33
2023-08-17T10:34:49.933Z,65.40
2023-08-17T10:37:18.543Z,65.67
2023-08-17T10:39:50.131Z,67.28
2023-08-17T10:42:34.595Z,67.62
2023-08-17T10:45:02.824Z,69.00
2023-08-17T10:47:35.656Z,69.29
2023-08-17T10:50:08.225Z,68.35
2023-08-17T10:52:39.011Z,69.53
2023-08-17T10:55:09.870Z,70.12
2023-08-17T10:57:41.082Z,70.09
2023-08-17T11:00:22.966Z,70.79
2023-08-17T11:03:13.403Z,70.78
2023-08-17T11:05:56.738Z,70.67
2023-08-17T11:08:34.685Z,70.28
2023-08-17T11:11:13.654Z,71.15
2023-08-17T11:13:43.244Z,70.92
2023-08-17T11:16:12.769Z,71.34
2023-08-17T11:18:45.373Z,71.05
2023-08-17T11:21:19.394Z,71.28
2023-08-17T11:23:46.914Z,71.57
2023-08-17T11:26:17.975Z,71.47
2023-08-17T11:28:45.916Z,71.40
2023-08-17T11:31:16.554Z,70.55
2023-08-17T11:33:43.919Z,71.18
2023-08-17T11:36:11.797Z,71.51
2023-08-17T11:38:42.096Z,70.90
2023-08-17T11:41:10.257Z,71.30
2023-08-17T11:43:38.463Z,71.49
2023-08-17T11:46:06.660Z,71.77
2023-08-17T11:48:37.584Z,72.20
2023-08-17T11:51:05.269Z,72.01
2023-08-17T11:53:40.356Z,72.05
2023-08-17T11:56:09.992Z,70.61
2023-08-17T11:58:46.394Z,70.31
2023-08-17T12:01:16.599Z,68.83
2023-08-17T12:03:44.204Z,69.05
2023-08-17T12:06:14.139Z,69.24
2023-08-17T12:08:48.113Z,69.37
2023-08-17T12:11:18.990Z,69.42
2023-08-17T12:13:52.159Z,68.90
2023-08-17T12:16:20.747Z,69.19
2023-08-17T12:18:52.887Z,67.82
2023-08-17T12:21:24.317Z,68.73
2023-08-17T12:23:51.862Z,69.43
2023-08-17T12:26:23.062Z,69.75
2023-08-17T12:28:51.373Z,69.19
2023-08-17T12:31:24.270Z,69.37
2023-08-17T12:33:52.778Z,68.38
2023-08-17T12:36:21.509Z,69.01
2023-08-17T12:38:49.347Z,68.27
2023-08-17T12:41:17.238Z,69.06
2023-08-17T12:43:44.400Z,69.80
2023-08-17T12:46:12.122Z,70.02
2023-08-17T12:48:42.130Z,68.46
2023-08-17T12:51:09.087Z,68.06
2023-08-17T12:53:35.983Z,68.14
2023-08-17T12:56:03.000Z,68.77
2023-08-17T12:58:29.969Z,68.92
2023-08-17T13:00:56.984Z,68.59
2023-08-17T13:03:24.077Z,67.67
2023-08-17T13:05:51.411Z,68.21
2023-08-17T13:08:18.328Z,68.89
2023-08-17T13:10:45.289Z,70.25
2023-08-17T13:13:12.255Z,70.57
2023-08-17T13:15:39.198Z,70.99
2023-08-17T13:18:06.458Z,70.76
2023-08-17T13:20:33.858Z,70.99
2023-08-17T13:23:00.775Z,71.56
2023-08-17T13:25:27.720Z,71.56
2023-08-17T13:27:54.589Z,71.27
2023-08-17T13:30:22.215Z,72.51
2023-08-17T13:32:49.214Z,71.85
2023-08-17T13:35:16.230Z,71.76
2023-08-17T13:37:43.186Z,71.91
2023-08-17T13:40:11.235Z,71.72
2023-08-17T13:42:38.211Z,71.46
2023-08-17T13:45:05.739Z,71.99
2023-08-17T13:47:32.742Z,72.58
2023-08-17T13:49:59.806Z,72.89
2023-08-17T13:52:26.949Z,72.74
2023-08-17T13:54:54.347Z,72.39
2023-08-17T13:57:21.268Z,72.54
2023-08-17T13:59:48.293Z,72.08
2023-08-17T14:02:15.271Z,71.48
2023-08-17T14:04:42.268Z,71.70
2023-08-17T14:07:09.180Z,71.58
2023-08-17T14:09:36.043Z,69.73
2023-08-17T14:12:03.122Z,70.04
2023-08-17T14:14:30.133Z,69.45
2023-08-17T14:16:58.023Z,69.23
2023-08-17T14:19:25.117Z,67.91
2023-08-17T14:21:53.461Z,68.58
2023-08-17T14:24:20.365Z,69.63
2023-08-17T14:26:47.262Z,69.92
2023-08-17T14:29:14.517Z,69.42
2023-08-17T14:31:41.449Z,69.18
2023-08-17T14:34:08.387Z,69.03
2023-08-17T14:36:35.403Z,68.09
2023-08-17T14:39:02.324Z,66.60
2023-08-17T14:41:33.213Z,67.79
2023-08-17T14:44:03.179Z,67.44
2023-08-17T14:46:31.076Z,67.70
2023-08-17T14:48:58.878Z,67.16
2023-08-17T14:51:31.071Z,67.85
2023-08-17T14:53:58.487Z,67.49
2023-08-17T14:56:25.424Z,67.11
2023-08-17T14:58:52.356Z,66.83
2023-08-17T15:01:19.576Z,67.36
2023-08-17T15:03:48.011Z,66.83
2023-08-17T15:06:31.921Z,66.58
2023-08-17T15:09:00.971Z,66.77
2023-08-17T15:11:27.864Z,66.85
2023-08-17T15:13:54.773Z,66.98
2023-08-17T15:16:26.525Z,66.59
2023-08-17T15:18:54.102Z,65.95
2023-08-17T15:21:21.802Z,65.86
2023-08-17T15:23:48.986Z,66.46
2023-08-17T15:26:15.973Z,66.34
2023-08-17T15:28:42.924Z,67.17
2023-08-17T15:31:17.560Z,66.51
2023-08-17T15:33:44.699Z,66.64
2023-08-17T15:36:11.649Z,67.29
2023-08-17T15:38:38.575Z,67.35
2023-08-17T15:41:05.636Z,67.18
2023-08-17T15:43:32.508Z,66.61
2023-08-17T15:45:59.589Z,67.65
2023-08-17T15:48:26.588Z,67.06
2023-08-17T15:50:53.553Z,67.35
2023-08-17T15:53:20.441Z,68.03
2023-08-17T15:55:47.415Z,67.91
2023-08-17T15:58:14.465Z,67.69
2023-08-17T16:00:41.758Z,67.46
2023-08-17T16:03:13.076Z,67.95
2023-08-17T16:05:40.731Z,67.59
2023-08-17T16:08:07.885Z,66.40
2023-08-17T16:10:35.681Z,66.19
2023-08-17T16:13:03.491Z,66.34
2023-08-17T16:15:30.501Z,65.66
2023-08-17T16:18:00.744Z,66.18
2023-08-17T16:20:30.547Z,66.16
2023-08-17T16:22:57.575Z,64.60
2023-08-17T16:25:29.672Z,64.79
2023-08-17T16:27:57.182Z,65.50
2023-08-17T16:30:24.458Z,65.10
2023-08-17T16:32:51.720Z,65.33
2023-08-17T16:35:18.684Z,66.27
2023-08-17T16:37:45.588Z,65.82
2023-08-17T16:40:23.941Z,66.14
2023-08-17T16:43:00.896Z,66.21
2023-08-17T16:45:28.463Z,66.56
2023-08-17T16:47:55.623Z,66.60
2023-08-17T16:50:22.660Z,66.94
2023-08-17T16:52:49.541Z,67.28
2023-08-17T16:55:18.036Z,67.58
2023-08-17T16:57:45.046Z,67.50
2023-08-17T17:00:13.058Z,67.32
2023-08-17T17:02:40.093Z,67.28
2023-08-17T17:05:07.929Z,67.60
2023-08-17T17:07:34.804Z,68.13
2023-08-17T17:10:01.726Z,67.92
2023-08-17T17:12:28.641Z,67.59
2023-08-17T17:14:55.672Z,68.02
2023-08-17T17:17:22.661Z,68.08
2023-08-17T17:19:50.835Z,68.42
2023-08-17T17:22:17.932Z,68.30
2023-08-17T17:24:44.848Z,68.44
2023-08-17T17:27:11.792Z,68.69
2023-08-17T17:29:38.690Z,68.93
2023-08-17T17:32:05.801Z,68.87
2023-08-17T17:34:32.782Z,68.86
2023-08-17T17:36:59.760Z,69.70
2023-08-17T17:39:26.690Z,69.36
2023-08-17T17:41:55.076Z,69.33
2023-08-17T17:44:21.985Z,69.73
2023-08-17T17:46:48.965Z,69.46
2023-08-17T17:49:15.870Z,69.84
2023-08-17T17:51:42.896Z,69.61
2023-08-17T17:54:10.068Z,70.04
2023-08-17T17:56:42.082Z,69.89
2023-08-17T17:59:11.517Z,70.63
2023-08-17T18:01:38.884Z,70.18
2023-08-17T18:04:05.942Z,70.60
2023-08-17T18:06:35.280Z,71.39
2023-08-17T18:09:02.788Z,71.47
2023-08-17T18:11:30.332Z,72.09
2023-08-17T18:13:57.293Z,72.17
2023-08-17T18:16:24.262Z,72.31
2023-08-17T18:18:51.225Z,72.07
2023-08-17T18:21:18.117Z,72.54
2023-08-17T18:23:45.043Z,73.46
2023-08-17T18:26:11.961Z,73.81
2023-08-17T18:28:38.967Z,73.69
2023-08-17T18:31:05.927Z,74.10
2023-08-17T18:33:32.900Z,73.65
2023-08-17T18:35:59.772Z,73.44
2023-08-17T18:38:26.804Z,74.04
2023-08-17T18:40:54.559Z,73.99
2023-08-17T18:43:21.571Z,73.89
2023-08-17T18:45:48.532Z,74.23
2023-08-17T18:48:15.875Z,74.19
2023-08-17T18:50:42.961Z,74.75
2023-08-17T18:53:09.880Z,74.94
2023-08-17T18:55:38.024Z,75.21
2023-08-17T18:58:05.091Z,75.63
2023-08-17T19:00:32.099Z,75.84
2023-08-17T19:02:59.043Z,75.73
2023-08-17T19:05:26.165Z,76.00
2023-08-17T19:07:53.327Z,76.72
2023-08-17T19:10:20.250Z,76.37
2023-08-17T19:12:47.227Z,77.44
2023-08-17T19:15:14.128Z,77.54
2023-08-17T19:17:41.103Z,77.43
2023-08-17T19:20:09.977Z,77.52
2023-08-17T19:22:37.504Z,78.15
2023-08-17T19:25:06.209Z,78.45
2023-08-17T19:27:33.106Z,78.51
2023-08-17T19:30:00.120Z,79.06
2023-08-17T19:32:27.148Z,79.03
2023-08-17T19:34:54.081Z,79.14
2023-08-17T19:37:21.064Z,79.37
2023-08-17T19:39:47.977Z,79.83
2023-08-17T19:42:14.821Z,79.99
2023-08-17T19:44:41.715Z,79.88
2023-08-17T19:47:08.653Z,80.16
2023-08-17T19:49:35.753Z,80.10
2023-08-17T19:52:02.722Z,80.19
2023-08-17T19:54:29.633Z,80.26
2023-08-17T19:56:57.776Z,79.83
2023-08-17T19:59:25.381Z,79.98
2023-08-17T20:01:52.308Z,79.86
2023-08-17T20:04:19.347Z,79.75
2023-08-17T20:06:46.916Z,79.88
2023-08-17T20:09:14.993Z,79.77
2023-08-17T20:11:41.978Z,80.01
2023-08-17T20:14:08.987Z,80.15
2023-08-17T20:16:35.894Z,80.35
2023-08-17T20:19:05.320Z,80.47
2023-08-17T20:21:32.528Z,80.49
2023-08-17T20:23:59.555Z,80.45
2023-08-17T20:26:26.478Z,80.20
2023-08-17T20:28:53.916Z,80.68
2023-08-17T20:31:20.918Z,80.61
2023-08-17T20:33:47.826Z,80.46
2023-08-17T20:36:14.755Z,80.70
2023-08-17T20:38:43.498Z,80.86
2023-08-17T20:41:10.403Z,80.90
2023-08-17T20:43:37.511Z,81.02
2023-08-17T20:46:06.215Z,80.81
2023-08-17T20:48:33.391Z,80.96
2023-08-17T20:51:01.790Z,81.00
2023-08-17T20:53:28.830Z,81.06
2023-08-17T20:55:55.679Z,81.25
2023-08-17T20:58:22.575Z,81.47
2023-08-17T21:00:51.057Z,81.13
2023-08-17T21:03:18.017Z,81.36
2023-08-17T21:05:44.935Z,81.28
2023-08-17T21:08:12.003Z,81.48
2023-08-17T21:10:39.222Z,81.71
2023-08-17T21:13:06.126Z,81.96
2023-08-17T21:15:33.103Z,82.26
2023-08-17T21:18:00.196Z,82.52
2023-08-17T21:20:31.146Z,82.51
2023-08-17T21:22:58.085Z,82.45
2023-08-17T21:25:24.936Z,82.51
2023-08-17T21:27:51.914Z,82.70
2023-08-17T21:30:18.928Z,83.02
2023-08-17T21:32:45.895Z,83.37
2023-08-17T21:35:13.340Z,83.26
2023-08-17T21:37:43.829Z,83.28
2023-08-17T21:40:14.024Z,83.14
2023-08-17T21:42:41.050Z,83.45
2023-08-17T21:45:08.654Z,84.02
2023-08-17T21:47:35.549Z,83.81
2023-08-17T21:50:03.169Z,84.24
2023-08-17T21:52:30.458Z,84.45
2023-08-17T21:54:57.347Z,84.04
2023-08-17T21:57:24.508Z,84.50
2023-08-17T21:59:52.339Z,84.38
2023-08-17T22:02:19.854Z,84.42
2023-08-17T22:04:46.799Z,84.07
2023-08-17T22:07:13.720Z,84.05
2023-08-17T22:09:40.735Z,84.60
2023-08-17T22:12:08.031Z,84.16
2023-08-17T22:14:34.932Z,84.81
2023-08-17T22:17:01.863Z,85.04
2023-08-17T22:19:29.650Z,85.28
2023-08-17T22:21:56.579Z,85.87
2023-08-17T22:24:24.244Z,85.98
2023-08-17T22:26:53.117Z,86.05
2023-08-17T22:29:20.022Z,86.18
2023-08-17T22:31:46.948Z,85.99
2023-08-17T22:34:13.852Z,86.10
2023-08-17T22:36:40.749Z,86.08
2023-08-17T22:39:07.655Z,85.48
2023-08-17T22:41:34.824Z,84.86
2023-08-17T22:44:02.268Z,84.97
2023-08-17T22:46:29.240Z,85.91
2023-08-17T22:48:56.208Z,85.61
2023-08-17T22:51:24.202Z,85.97
2023-08-17T22:53:51.434Z,86.20
2023-08-17T22:56:18.375Z,85.93
2023-08-17T22:58:45.274Z,85.66
2023-08-17T23:01:12.213Z,85.30
2023-08-17T23:03:39.111Z,85.87
2023-08-17T23:06:06.097Z,85.46
2023-08-17T23:08:33.398Z,85.51
2023-08-17T23:11:01.849Z,85.49
2023-08-17T23:13:29.196Z,85.25
2023-08-17T23:15:56.528Z,85.47
2023-08-17T23:18:23.527Z,85.43
2023-08-17T23:20:51.175Z,85.02
2023-08-17T23:23:19.304Z,85.45
2023-08-17T23:25:46.345Z,85.33
2023-08-17T23:28:13.891Z,84.82
2023-08-17T23:30:42.154Z,85.05
2023-08-17T23:33:10.651Z,85.69
2023-08-17T23:35:41.141Z,85.74
2023-08-17T23:38:10.071Z,86.85
2023-08-17T23:40:37.157Z,86.22
2023-08-17T23:43:04.121Z,86.04
2023-08-17T23:45:31.060Z,85.85
2023-08-17T23:47:58.545Z,86.24
2023-08-17T23:50:25.535Z,85.74
2023-08-17T23:52:52.555Z,85.74
2023-08-17T23:55:19.505Z,86.09
2023-08-17T23:57:46.516Z,85.60
